sensor_id;sensor_type;location;lat;lon;timestamp;P1;durP1;ratioP1;P2;durP2;ratioP2
5604;SDS011;9297;47.258;11.362;2023-12-04T00:02:08;13.33;;;8.07;;
5604;SDS011;9297;47.258;11.362;2023-12-04T00:04:36;11.53;;;7.80;;
5604;SDS011;9297;47.258;11.362;2023-12-04T00:07:03;14.40;;;8.23;;
5604;SDS011;9297;47.258;11.362;2023-12-04T00:09:31;11.73;;;7.57;;
5604;SDS011;9297;47.258;11.362;2023-12-04T00:11:59;9.83;;;6.77;;
5604;SDS011;9297;47.258;11.362;2023-12-04T00:14:26;12.77;;;7.07;;
5604;SDS011;9297;47.258;11.362;2023-12-04T00:16:53;12.93;;;8.00;;
5604;SDS011;9297;47.258;11.362;2023-12-04T00:19:20;10.80;;;6.60;;
5604;SDS011;9297;47.258;11.362;2023-12-04T00:21:49;13.17;;;7.40;;
5604;SDS011;9297;47.258;11.362;2023-12-04T00:24:16;11.30;;;7.67;;
5604;SDS011;9297;47.258;11.362;2023-12-04T00:26:43;13.90;;;7.67;;
5604;SDS011;9297;47.258;11.362;2023-12-04T00:29:10;11.30;;;6.80;;
5604;SDS011;9297;47.258;11.362;2023-12-04T00:31:38;11.83;;;7.07;;
5604;SDS011;9297;47.258;11.362;2023-12-04T00:34:05;10.83;;;6.87;;
5604;SDS011;9297;47.258;11.362;2023-12-04T00:36:32;12.23;;;7.30;;
5604;SDS011;9297;47.258;11.362;2023-12-04T00:39:01;9.57;;;6.10;;
5604;SDS011;9297;47.258;11.362;2023-12-04T00:41:28;10.77;;;6.53;;
5604;SDS011;9297;47.258;11.362;2023-12-04T00:43:55;11.57;;;6.53;;
5604;SDS011;9297;47.258;11.362;2023-12-04T00:46:22;9.67;;;6.03;;
5604;SDS011;9297;47.258;11.362;2023-12-04T00:48:49;10.77;;;6.73;;
5604;SDS011;9297;47.258;11.362;2023-12-04T00:51:17;9.97;;;6.30;;
5604;SDS011;9297;47.258;11.362;2023-12-04T00:53:44;8.90;;;6.43;;
5604;SDS011;9297;47.258;11.362;2023-12-04T00:56:13;8.27;;;5.63;;
5604;SDS011;9297;47.258;11.362;2023-12-04T00:58:40;7.27;;;5.13;;
5604;SDS011;9297;47.258;11.362;2023-12-04T01:01:07;10.57;;;5.87;;
5604;SDS011;9297;47.258;11.362;2023-12-04T01:03:34;11.97;;;6.57;;
5604;SDS011;9297;47.258;11.362;2023-12-04T01:06:02;10.27;;;6.73;;
5604;SDS011;9297;47.258;11.362;2023-12-04T01:08:29;9.27;;;6.17;;
5604;SDS011;9297;47.258;11.362;2023-12-04T01:10:56;8.97;;;6.10;;
5604;SDS011;9297;47.258;11.362;2023-12-04T01:13:25;10.27;;;6.77;;
5604;SDS011;9297;47.258;11.362;2023-12-04T01:15:53;7.63;;;5.57;;
5604;SDS011;9297;47.258;11.362;2023-12-04T01:18:20;9.17;;;5.33;;
5604;SDS011;9297;47.258;11.362;2023-12-04T01:20:48;8.67;;;5.90;;
5604;SDS011;9297;47.258;11.362;2023-12-04T01:23:15;7.97;;;5.67;;
5604;SDS011;9297;47.258;11.362;2023-12-04T01:25:42;6.53;;;5.17;;
5604;SDS011;9297;47.258;11.362;2023-12-04T01:28:09;9.97;;;6.10;;
5604;SDS011;9297;47.258;11.362;2023-12-04T01:30:38;9.27;;;5.73;;
5604;SDS011;9297;47.258;11.362;2023-12-04T01:33:05;10.27;;;5.70;;
5604;SDS011;9297;47.258;11.362;2023-12-04T01:35:33;8.37;;;5.43;;
5604;SDS011;9297;47.258;11.362;2023-12-04T01:38:00;7.63;;;5.37;;
5604;SDS011;9297;47.258;11.362;2023-12-04T01:40:28;9.50;;;5.67;;
5604;SDS011;9297;47.258;11.362;2023-12-04T01:42:55;7.63;;;5.03;;
5604;SDS011;9297;47.258;11.362;2023-12-04T01:45:22;6.73;;;5.10;;
5604;SDS011;9297;47.258;11.362;2023-12-04T01:47:51;9.87;;;5.77;;
5604;SDS011;9297;47.258;11.362;2023-12-04T01:50:18;6.93;;;5.17;;
5604;SDS011;9297;47.258;11.362;2023-12-04T01:52:46;9.03;;;6.00;;
5604;SDS011;9297;47.258;11.362;2023-12-04T01:55:14;8.70;;;6.30;;
5604;SDS011;9297;47.258;11.362;2023-12-04T01:57:44;9.53;;;5.50;;
5604;SDS011;9297;47.258;11.362;2023-12-04T02:00:12;8.27;;;5.40;;
5604;SDS011;9297;47.258;11.362;2023-12-04T02:02:40;7.30;;;5.50;;
5604;SDS011;9297;47.258;11.362;2023-12-04T02:05:09;8.07;;;5.87;;
5604;SDS011;9297;47.258;11.362;2023-12-04T02:07:40;8.43;;;5.67;;
5604;SDS011;9297;47.258;11.362;2023-12-04T02:10:07;8.13;;;5.30;;
5604;SDS011;9297;47.258;11.362;2023-12-04T02:12:35;5.47;;;4.73;;
5604;SDS011;9297;47.258;11.362;2023-12-04T02:15:02;7.60;;;4.73;;
5604;SDS011;9297;47.258;11.362;2023-12-04T02:17:30;7.30;;;5.30;;
5604;SDS011;9297;47.258;11.362;2023-12-04T02:20:01;6.73;;;4.80;;
5604;SDS011;9297;47.258;11.362;2023-12-04T02:22:34;7.80;;;4.70;;
5604;SDS011;9297;47.258;11.362;2023-12-04T02:25:02;7.20;;;4.93;;
5604;SDS011;9297;47.258;11.362;2023-12-04T02:27:32;7.60;;;4.93;;
5604;SDS011;9297;47.258;11.362;2023-12-04T02:30:06;6.30;;;4.83;;
5604;SDS011;9297;47.258;11.362;2023-12-04T02:32:38;7.27;;;4.93;;
5604;SDS011;9297;47.258;11.362;2023-12-04T02:35:09;7.33;;;4.90;;
5604;SDS011;9297;47.258;11.362;2023-12-04T02:37:38;6.47;;;5.10;;
5604;SDS011;9297;47.258;11.362;2023-12-04T02:40:09;6.60;;;4.77;;
5604;SDS011;9297;47.258;11.362;2023-12-04T02:42:38;6.03;;;4.90;;
5604;SDS011;9297;47.258;11.362;2023-12-04T02:45:06;5.53;;;4.10;;
5604;SDS011;9297;47.258;11.362;2023-12-04T02:47:34;6.67;;;4.80;;
5604;SDS011;9297;47.258;11.362;2023-12-04T02:50:02;5.20;;;4.70;;
5604;SDS011;9297;47.258;11.362;2023-12-04T02:52:29;8.97;;;5.00;;
5604;SDS011;9297;47.258;11.362;2023-12-04T02:54:57;8.10;;;4.80;;
5604;SDS011;9297;47.258;11.362;2023-12-04T02:57:25;6.37;;;4.37;;
5604;SDS011;9297;47.258;11.362;2023-12-04T02:59:53;5.43;;;4.40;;
5604;SDS011;9297;47.258;11.362;2023-12-04T03:02:20;7.50;;;4.73;;
5604;SDS011;9297;47.258;11.362;2023-12-04T03:04:47;6.43;;;4.27;;
5604;SDS011;9297;47.258;11.362;2023-12-04T03:07:15;5.13;;;3.90;;
5604;SDS011;9297;47.258;11.362;2023-12-04T03:09:42;5.67;;;4.67;;
5604;SDS011;9297;47.258;11.362;2023-12-04T03:12:15;9.00;;;4.73;;
5604;SDS011;9297;47.258;11.362;2023-12-04T03:14:43;5.57;;;4.73;;
5604;SDS011;9297;47.258;11.362;2023-12-04T03:17:10;6.47;;;4.70;;
5604;SDS011;9297;47.258;11.362;2023-12-04T03:19:38;5.90;;;4.33;;
5604;SDS011;9297;47.258;11.362;2023-12-04T03:22:05;7.60;;;4.73;;
5604;SDS011;9297;47.258;11.362;2023-12-04T03:24:32;7.03;;;4.20;;
5604;SDS011;9297;47.258;11.362;2023-12-04T03:26:59;5.10;;;4.60;;
5604;SDS011;9297;47.258;11.362;2023-12-04T03:29:27;5.90;;;4.43;;
5604;SDS011;9297;47.258;11.362;2023-12-04T03:31:55;7.03;;;4.63;;
5604;SDS011;9297;47.258;11.362;2023-12-04T03:34:22;5.33;;;4.00;;
5604;SDS011;9297;47.258;11.362;2023-12-04T03:36:51;6.90;;;4.47;;
5604;SDS011;9297;47.258;11.362;2023-12-04T03:39:18;6.53;;;4.33;;
5604;SDS011;9297;47.258;11.362;2023-12-04T03:41:46;7.97;;;5.03;;
5604;SDS011;9297;47.258;11.362;2023-12-04T03:44:13;8.50;;;5.00;;
5604;SDS011;9297;47.258;11.362;2023-12-04T03:46:41;4.63;;;4.13;;
5604;SDS011;9297;47.258;11.362;2023-12-04T03:49:09;5.50;;;4.63;;
5604;SDS011;9297;47.258;11.362;2023-12-04T03:51:36;4.10;;;3.40;;
5604;SDS011;9297;47.258;11.362;2023-12-04T03:54:04;6.70;;;3.83;;
5604;SDS011;9297;47.258;11.362;2023-12-04T03:56:31;4.70;;;3.87;;
5604;SDS011;9297;47.258;11.362;2023-12-04T03:58:58;6.70;;;3.93;;
5604;SDS011;9297;47.258;11.362;2023-12-04T04:01:25;4.07;;;3.67;;
5604;SDS011;9297;47.258;11.362;2023-12-04T04:03:53;4.10;;;3.67;;
5604;SDS011;9297;47.258;11.362;2023-12-04T04:06:21;7.60;;;3.83;;
5604;SDS011;9297;47.258;11.362;2023-12-04T04:08:49;5.83;;;4.33;;
5604;SDS011;9297;47.258;11.362;2023-12-04T04:11:16;8.60;;;4.23;;
5604;SDS011;9297;47.258;11.362;2023-12-04T04:13:43;12.90;;;6.43;;
5604;SDS011;9297;47.258;11.362;2023-12-04T04:16:13;9.50;;;5.90;;
5604;SDS011;9297;47.258;11.362;2023-12-04T04:18:41;11.30;;;6.20;;
5604;SDS011;9297;47.258;11.362;2023-12-04T04:21:08;8.90;;;6.00;;
5604;SDS011;9297;47.258;11.362;2023-12-04T04:23:37;8.87;;;4.80;;
5604;SDS011;9297;47.258;11.362;2023-12-04T04:26:04;9.67;;;5.57;;
5604;SDS011;9297;47.258;11.362;2023-12-04T04:28:32;9.33;;;5.60;;
5604;SDS011;9297;47.258;11.362;2023-12-04T04:30:59;6.60;;;5.07;;
5604;SDS011;9297;47.258;11.362;2023-12-04T04:33:26;5.33;;;3.90;;
5604;SDS011;9297;47.258;11.362;2023-12-04T04:35:53;5.53;;;3.73;;
5604;SDS011;9297;47.258;11.362;2023-12-04T04:38:20;5.17;;;3.47;;
5604;SDS011;9297;47.258;11.362;2023-12-04T04:40:49;4.27;;;3.60;;
5604;SDS011;9297;47.258;11.362;2023-12-04T04:43:16;5.03;;;3.17;;
5604;SDS011;9297;47.258;11.362;2023-12-04T04:45:43;3.17;;;2.80;;
5604;SDS011;9297;47.258;11.362;2023-12-04T04:48:11;3.90;;;3.10;;
5604;SDS011;9297;47.258;11.362;2023-12-04T04:50:38;4.47;;;3.30;;
5604;SDS011;9297;47.258;11.362;2023-12-04T04:53:05;5.17;;;3.07;;
5604;SDS011;9297;47.258;11.362;2023-12-04T04:55:32;3.53;;;2.97;;
5604;SDS011;9297;47.258;11.362;2023-12-04T04:58:16;3.23;;;2.87;;
5604;SDS011;9297;47.258;11.362;2023-12-04T05:00:43;4.80;;;3.33;;
5604;SDS011;9297;47.258;11.362;2023-12-04T05:03:10;3.40;;;3.10;;
5604;SDS011;9297;47.258;11.362;2023-12-04T05:05:38;3.00;;;2.57;;
5604;SDS011;9297;47.258;11.362;2023-12-04T05:08:05;3.23;;;2.77;;
5604;SDS011;9297;47.258;11.362;2023-12-04T05:10:32;3.60;;;2.90;;
5604;SDS011;9297;47.258;11.362;2023-12-04T05:12:59;2.87;;;2.67;;
5604;SDS011;9297;47.258;11.362;2023-12-04T05:15:28;4.83;;;2.93;;
5604;SDS011;9297;47.258;11.362;2023-12-04T05:17:57;2.90;;;2.70;;
5604;SDS011;9297;47.258;11.362;2023-12-04T05:20:24;3.27;;;2.97;;
5604;SDS011;9297;47.258;11.362;2023-12-04T05:22:51;2.97;;;2.77;;
5604;SDS011;9297;47.258;11.362;2023-12-04T05:25:19;4.60;;;2.50;;
5604;SDS011;9297;47.258;11.362;2023-12-04T05:27:46;2.97;;;2.67;;
5604;SDS011;9297;47.258;11.362;2023-12-04T05:30:15;3.00;;;2.67;;
5604;SDS011;9297;47.258;11.362;2023-12-04T05:32:44;3.07;;;2.87;;
5604;SDS011;9297;47.258;11.362;2023-12-04T05:35:11;2.30;;;2.20;;
5604;SDS011;9297;47.258;11.362;2023-12-04T05:37:40;2.93;;;2.73;;
5604;SDS011;9297;47.258;11.362;2023-12-04T05:40:08;3.57;;;3.00;;
5604;SDS011;9297;47.258;11.362;2023-12-04T05:42:36;3.07;;;2.83;;
5604;SDS011;9297;47.258;11.362;2023-12-04T05:45:03;4.30;;;2.83;;
5604;SDS011;9297;47.258;11.362;2023-12-04T05:47:31;3.73;;;2.83;;
5604;SDS011;9297;47.258;11.362;2023-12-04T05:49:59;3.27;;;2.93;;
5604;SDS011;9297;47.258;11.362;2023-12-04T05:52:26;3.13;;;2.77;;
5604;SDS011;9297;47.258;11.362;2023-12-04T05:54:53;2.73;;;2.50;;
5604;SDS011;9297;47.258;11.362;2023-12-04T05:57:21;12.80;;;5.50;;
5604;SDS011;9297;47.258;11.362;2023-12-04T05:59:48;14.63;;;7.23;;
5604;SDS011;9297;47.258;11.362;2023-12-04T06:02:17;12.73;;;7.07;;
5604;SDS011;9297;47.258;11.362;2023-12-04T06:04:44;8.77;;;3.60;;
5604;SDS011;9297;47.258;11.362;2023-12-04T06:07:20;8.63;;;5.00;;
5604;SDS011;9297;47.258;11.362;2023-12-04T06:09:47;6.13;;;4.33;;
5604;SDS011;9297;47.258;11.362;2023-12-04T06:12:14;5.00;;;4.30;;
5604;SDS011;9297;47.258;11.362;2023-12-04T06:14:41;4.17;;;3.50;;
5604;SDS011;9297;47.258;11.362;2023-12-04T06:17:11;4.87;;;3.70;;
5604;SDS011;9297;47.258;11.362;2023-12-04T06:19:38;3.57;;;3.27;;
5604;SDS011;9297;47.258;11.362;2023-12-04T06:22:06;3.37;;;3.10;;
5604;SDS011;9297;47.258;11.362;2023-12-04T06:24:35;3.93;;;3.60;;
5604;SDS011;9297;47.258;11.362;2023-12-04T06:27:02;2.80;;;2.60;;
5604;SDS011;9297;47.258;11.362;2023-12-04T06:29:30;3.07;;;2.87;;
5604;SDS011;9297;47.258;11.362;2023-12-04T06:31:58;3.80;;;3.50;;
5604;SDS011;9297;47.258;11.362;2023-12-04T06:34:26;3.40;;;3.20;;
5604;SDS011;9297;47.258;11.362;2023-12-04T06:36:53;2.93;;;2.73;;
5604;SDS011;9297;47.258;11.362;2023-12-04T06:39:22;3.03;;;2.80;;
5604;SDS011;9297;47.258;11.362;2023-12-04T06:41:53;3.83;;;3.43;;
5604;SDS011;9297;47.258;11.362;2023-12-04T06:44:20;3.13;;;2.93;;
5604;SDS011;9297;47.258;11.362;2023-12-04T06:46:48;4.70;;;3.60;;
5604;SDS011;9297;47.258;11.362;2023-12-04T06:49:18;5.57;;;4.07;;
5604;SDS011;9297;47.258;11.362;2023-12-04T06:51:46;3.97;;;3.47;;
5604;SDS011;9297;47.258;11.362;2023-12-04T06:54:13;4.90;;;4.40;;
5604;SDS011;9297;47.258;11.362;2023-12-04T06:56:41;4.93;;;3.20;;
5604;SDS011;9297;47.258;11.362;2023-12-04T06:59:09;4.93;;;3.17;;
5604;SDS011;9297;47.258;11.362;2023-12-04T07:01:36;3.37;;;3.07;;
5604;SDS011;9297;47.258;11.362;2023-12-04T07:04:03;2.90;;;2.70;;
5604;SDS011;9297;47.258;11.362;2023-12-04T07:06:31;4.77;;;3.40;;
5604;SDS011;9297;47.258;11.362;2023-12-04T07:08:58;4.83;;;3.57;;
5604;SDS011;9297;47.258;11.362;2023-12-04T07:11:25;5.83;;;4.63;;
5604;SDS011;9297;47.258;11.362;2023-12-04T07:13:52;4.70;;;3.70;;
5604;SDS011;9297;47.258;11.362;2023-12-04T07:16:20;3.67;;;3.20;;
5604;SDS011;9297;47.258;11.362;2023-12-04T07:18:47;4.00;;;3.27;;
5604;SDS011;9297;47.258;11.362;2023-12-04T07:21:15;3.47;;;3.17;;
5604;SDS011;9297;47.258;11.362;2023-12-04T07:23:42;3.10;;;2.90;;
5604;SDS011;9297;47.258;11.362;2023-12-04T07:26:09;4.20;;;3.50;;
5604;SDS011;9297;47.258;11.362;2023-12-04T07:28:36;3.83;;;2.90;;
5604;SDS011;9297;47.258;11.362;2023-12-04T07:31:04;3.03;;;2.83;;
5604;SDS011;9297;47.258;11.362;2023-12-04T07:33:32;3.33;;;3.03;;
5604;SDS011;9297;47.258;11.362;2023-12-04T07:36:00;3.53;;;3.23;;
5604;SDS011;9297;47.258;11.362;2023-12-04T07:38:27;3.10;;;2.87;;
5604;SDS011;9297;47.258;11.362;2023-12-04T07:40:55;2.93;;;2.63;;
5604;SDS011;9297;47.258;11.362;2023-12-04T07:43:22;4.33;;;2.90;;
5604;SDS011;9297;47.258;11.362;2023-12-04T07:45:49;3.33;;;3.07;;
5604;SDS011;9297;47.258;11.362;2023-12-04T07:48:16;2.97;;;2.70;;
5604;SDS011;9297;47.258;11.362;2023-12-04T07:50:45;3.37;;;2.90;;
5604;SDS011;9297;47.258;11.362;2023-12-04T07:53:12;3.23;;;2.93;;
5604;SDS011;9297;47.258;11.362;2023-12-04T07:55:39;3.43;;;2.80;;
5604;SDS011;9297;47.258;11.362;2023-12-04T07:58:07;3.10;;;2.80;;
5604;SDS011;9297;47.258;11.362;2023-12-04T08:00:34;3.13;;;2.83;;
5604;SDS011;9297;47.258;11.362;2023-12-04T08:03:01;2.90;;;2.70;;
5604;SDS011;9297;47.258;11.362;2023-12-04T08:05:28;3.10;;;2.80;;
5604;SDS011;9297;47.258;11.362;2023-12-04T08:07:57;2.70;;;2.50;;
5604;SDS011;9297;47.258;11.362;2023-12-04T08:10:24;3.27;;;3.00;;
5604;SDS011;9297;47.258;11.362;2023-12-04T08:12:51;3.97;;;2.83;;
5604;SDS011;9297;47.258;11.362;2023-12-04T08:15:18;3.00;;;2.80;;
5604;SDS011;9297;47.258;11.362;2023-12-04T08:17:46;3.37;;;3.10;;
5604;SDS011;9297;47.258;11.362;2023-12-04T08:20:13;3.27;;;2.97;;
5604;SDS011;9297;47.258;11.362;2023-12-04T08:22:50;2.93;;;2.73;;
5604;SDS011;9297;47.258;11.362;2023-12-04T08:25:18;3.33;;;2.97;;
5604;SDS011;9297;47.258;11.362;2023-12-04T08:27:45;3.00;;;2.73;;
5604;SDS011;9297;47.258;11.362;2023-12-04T08:30:13;3.13;;;2.50;;
5604;SDS011;9297;47.258;11.362;2023-12-04T08:32:40;3.83;;;3.03;;
5604;SDS011;9297;47.258;11.362;2023-12-04T08:35:08;2.70;;;2.53;;
5604;SDS011;9297;47.258;11.362;2023-12-04T08:37:35;3.20;;;2.50;;
5604;SDS011;9297;47.258;11.362;2023-12-04T08:40:03;3.17;;;2.87;;
5604;SDS011;9297;47.258;11.362;2023-12-04T08:42:32;3.17;;;2.63;;
5604;SDS011;9297;47.258;11.362;2023-12-04T08:44:59;2.77;;;2.50;;
5604;SDS011;9297;47.258;11.362;2023-12-04T08:47:26;3.60;;;3.27;;
5604;SDS011;9297;47.258;11.362;2023-12-04T08:49:53;3.27;;;2.47;;
5604;SDS011;9297;47.258;11.362;2023-12-04T08:52:20;3.10;;;2.60;;
5604;SDS011;9297;47.258;11.362;2023-12-04T08:54:47;3.30;;;3.00;;
5604;SDS011;9297;47.258;11.362;2023-12-04T08:57:15;2.50;;;2.30;;
5604;SDS011;9297;47.258;11.362;2023-12-04T08:59:43;2.80;;;2.60;;
5604;SDS011;9297;47.258;11.362;2023-12-04T09:02:10;2.70;;;2.50;;
5604;SDS011;9297;47.258;11.362;2023-12-04T09:04:40;3.17;;;2.90;;
5604;SDS011;9297;47.258;11.362;2023-12-04T09:07:08;3.03;;;2.83;;
5604;SDS011;9297;47.258;11.362;2023-12-04T09:09:38;3.83;;;3.00;;
5604;SDS011;9297;47.258;11.362;2023-12-04T09:12:05;3.47;;;3.17;;
5604;SDS011;9297;47.258;11.362;2023-12-04T09:14:33;4.03;;;2.87;;
5604;SDS011;9297;47.258;11.362;2023-12-04T09:17:01;5.27;;;3.47;;
5604;SDS011;9297;47.258;11.362;2023-12-04T09:19:29;4.47;;;3.50;;
5604;SDS011;9297;47.258;11.362;2023-12-04T09:21:56;3.73;;;3.27;;
5604;SDS011;9297;47.258;11.362;2023-12-04T09:24:38;3.60;;;3.30;;
5604;SDS011;9297;47.258;11.362;2023-12-04T09:27:05;4.57;;;3.13;;
5604;SDS011;9297;47.258;11.362;2023-12-04T09:29:32;3.17;;;2.87;;
5604;SDS011;9297;47.258;11.362;2023-12-04T09:32:02;3.53;;;3.23;;
5604;SDS011;9297;47.258;11.362;2023-12-04T09:34:29;3.17;;;3.00;;
5604;SDS011;9297;47.258;11.362;2023-12-04T09:36:57;3.20;;;2.90;;
5604;SDS011;9297;47.258;11.362;2023-12-04T09:39:36;3.40;;;3.10;;
5604;SDS011;9297;47.258;11.362;2023-12-04T09:42:03;4.70;;;3.00;;
5604;SDS011;9297;47.258;11.362;2023-12-04T09:44:31;4.47;;;2.70;;
5604;SDS011;9297;47.258;11.362;2023-12-04T09:47:01;2.80;;;2.60;;
5604;SDS011;9297;47.258;11.362;2023-12-04T09:49:29;3.13;;;2.93;;
5604;SDS011;9297;47.258;11.362;2023-12-04T09:51:58;3.37;;;3.07;;
5604;SDS011;9297;47.258;11.362;2023-12-04T09:54:26;3.07;;;2.77;;
5604;SDS011;9297;47.258;11.362;2023-12-04T09:56:55;4.20;;;3.10;;
5604;SDS011;9297;47.258;11.362;2023-12-04T09:59:23;4.70;;;3.13;;
5604;SDS011;9297;47.258;11.362;2023-12-04T10:01:51;4.27;;;3.53;;
5604;SDS011;9297;47.258;11.362;2023-12-04T10:04:20;2.90;;;2.70;;
5604;SDS011;9297;47.258;11.362;2023-12-04T10:06:49;3.50;;;3.20;;
5604;SDS011;9297;47.258;11.362;2023-12-04T10:09:17;2.37;;;2.17;;
5604;SDS011;9297;47.258;11.362;2023-12-04T10:11:44;3.40;;;3.10;;
5604;SDS011;9297;47.258;11.362;2023-12-04T10:14:14;3.97;;;3.20;;
5604;SDS011;9297;47.258;11.362;2023-12-04T10:16:42;2.80;;;2.60;;
5604;SDS011;9297;47.258;11.362;2023-12-04T10:19:17;3.40;;;3.10;;
5604;SDS011;9297;47.258;11.362;2023-12-04T10:21:48;4.13;;;3.13;;
5604;SDS011;9297;47.258;11.362;2023-12-04T10:24:26;3.60;;;2.90;;
5604;SDS011;9297;47.258;11.362;2023-12-04T10:26:54;3.07;;;2.87;;
5604;SDS011;9297;47.258;11.362;2023-12-04T10:29:22;3.40;;;2.87;;
5604;SDS011;9297;47.258;11.362;2023-12-04T10:31:49;3.47;;;2.97;;
5604;SDS011;9297;47.258;11.362;2023-12-04T10:34:17;3.23;;;2.83;;
5604;SDS011;9297;47.258;11.362;2023-12-04T10:36:45;3.13;;;2.83;;
5604;SDS011;9297;47.258;11.362;2023-12-04T10:39:13;2.97;;;2.70;;
5604;SDS011;9297;47.258;11.362;2023-12-04T10:41:41;3.43;;;3.10;;
5604;SDS011;9297;47.258;11.362;2023-12-04T10:44:08;3.80;;;3.50;;
5604;SDS011;9297;47.258;11.362;2023-12-04T10:46:36;4.50;;;3.40;;
5604;SDS011;9297;47.258;11.362;2023-12-04T10:49:05;3.80;;;3.30;;
5604;SDS011;9297;47.258;11.362;2023-12-04T10:51:33;3.60;;;3.30;;
5604;SDS011;9297;47.258;11.362;2023-12-04T10:54:02;4.13;;;3.63;;
5604;SDS011;9297;47.258;11.362;2023-12-04T10:56:30;5.97;;;4.10;;
5604;SDS011;9297;47.258;11.362;2023-12-04T10:59:01;3.53;;;3.20;;
5604;SDS011;9297;47.258;11.362;2023-12-04T11:01:35;4.23;;;3.60;;
5604;SDS011;9297;47.258;11.362;2023-12-04T11:04:03;4.97;;;3.80;;
5604;SDS011;9297;47.258;11.362;2023-12-04T11:06:34;5.07;;;4.10;;
5604;SDS011;9297;47.258;11.362;2023-12-04T11:09:07;5.13;;;3.70;;
5604;SDS011;9297;47.258;11.362;2023-12-04T11:11:36;3.70;;;3.17;;
5604;SDS011;9297;47.258;11.362;2023-12-04T11:14:07;4.97;;;3.60;;
5604;SDS011;9297;47.258;11.362;2023-12-04T11:16:38;2.90;;;2.60;;
5604;SDS011;9297;47.258;11.362;2023-12-04T11:19:11;3.37;;;3.07;;
5604;SDS011;9297;47.258;11.362;2023-12-04T11:21:45;3.23;;;2.87;;
5604;SDS011;9297;47.258;11.362;2023-12-04T11:24:13;2.93;;;2.73;;
5604;SDS011;9297;47.258;11.362;2023-12-04T11:26:41;3.30;;;3.00;;
5604;SDS011;9297;47.258;11.362;2023-12-04T11:29:09;3.67;;;3.37;;
5604;SDS011;9297;47.258;11.362;2023-12-04T11:31:38;3.83;;;3.53;;
5604;SDS011;9297;47.258;11.362;2023-12-04T11:34:07;3.30;;;3.03;;
5604;SDS011;9297;47.258;11.362;2023-12-04T11:36:35;4.37;;;3.77;;
5604;SDS011;9297;47.258;11.362;2023-12-04T11:39:03;3.77;;;3.47;;
5604;SDS011;9297;47.258;11.362;2023-12-04T11:41:36;4.33;;;3.90;;
5604;SDS011;9297;47.258;11.362;2023-12-04T11:44:05;3.87;;;3.57;;
5604;SDS011;9297;47.258;11.362;2023-12-04T11:46:39;6.90;;;4.10;;
5604;SDS011;9297;47.258;11.362;2023-12-04T11:49:26;4.27;;;3.67;;
5604;SDS011;9297;47.258;11.362;2023-12-04T11:51:55;4.40;;;4.00;;
5604;SDS011;9297;47.258;11.362;2023-12-04T11:54:22;5.07;;;3.70;;
5604;SDS011;9297;47.258;11.362;2023-12-04T11:56:57;4.67;;;4.27;;
5604;SDS011;9297;47.258;11.362;2023-12-04T11:59:26;4.40;;;4.00;;
5604;SDS011;9297;47.258;11.362;2023-12-04T12:01:54;4.37;;;3.97;;
5604;SDS011;9297;47.258;11.362;2023-12-04T12:04:22;5.20;;;3.90;;
5604;SDS011;9297;47.258;11.362;2023-12-04T12:06:49;4.97;;;3.90;;
5604;SDS011;9297;47.258;11.362;2023-12-04T12:09:17;4.83;;;4.13;;
5604;SDS011;9297;47.258;11.362;2023-12-04T12:11:45;4.30;;;3.90;;
5604;SDS011;9297;47.258;11.362;2023-12-04T12:14:14;5.83;;;4.30;;
5604;SDS011;9297;47.258;11.362;2023-12-04T12:16:41;9.50;;;4.40;;
5604;SDS011;9297;47.258;11.362;2023-12-04T12:19:10;5.23;;;4.43;;
5604;SDS011;9297;47.258;11.362;2023-12-04T12:21:38;4.50;;;3.83;;
5604;SDS011;9297;47.258;11.362;2023-12-04T12:24:06;5.27;;;3.67;;
5604;SDS011;9297;47.258;11.362;2023-12-04T12:26:33;3.83;;;3.47;;
5604;SDS011;9297;47.258;11.362;2023-12-04T12:29:01;4.20;;;3.77;;
5604;SDS011;9297;47.258;11.362;2023-12-04T12:31:29;4.40;;;4.00;;
5604;SDS011;9297;47.258;11.362;2023-12-04T12:33:56;5.20;;;3.97;;
5604;SDS011;9297;47.258;11.362;2023-12-04T12:36:24;5.30;;;4.43;;
5604;SDS011;9297;47.258;11.362;2023-12-04T12:38:51;5.57;;;4.00;;
5604;SDS011;9297;47.258;11.362;2023-12-04T12:41:19;6.10;;;4.17;;
5604;SDS011;9297;47.258;11.362;2023-12-04T12:43:51;5.40;;;4.47;;
5604;SDS011;9297;47.258;11.362;2023-12-04T12:46:18;5.80;;;4.20;;
5604;SDS011;9297;47.258;11.362;2023-12-04T12:48:47;4.73;;;4.17;;
5604;SDS011;9297;47.258;11.362;2023-12-04T12:51:15;5.17;;;4.00;;
5604;SDS011;9297;47.258;11.362;2023-12-04T12:53:43;4.40;;;4.00;;
5604;SDS011;9297;47.258;11.362;2023-12-04T12:56:16;4.77;;;4.10;;
5604;SDS011;9297;47.258;11.362;2023-12-04T12:58:43;3.50;;;3.20;;
5604;SDS011;9297;47.258;11.362;2023-12-04T13:01:11;3.80;;;3.50;;
5604;SDS011;9297;47.258;11.362;2023-12-04T13:03:39;4.20;;;3.87;;
5604;SDS011;9297;47.258;11.362;2023-12-04T13:06:08;5.23;;;4.43;;
5604;SDS011;9297;47.258;11.362;2023-12-04T13:08:36;4.10;;;3.70;;
5604;SDS011;9297;47.258;11.362;2023-12-04T13:11:03;5.17;;;3.77;;
5604;SDS011;9297;47.258;11.362;2023-12-04T13:13:31;4.87;;;4.13;;
5604;SDS011;9297;47.258;11.362;2023-12-04T13:15:59;4.83;;;4.23;;
5604;SDS011;9297;47.258;11.362;2023-12-04T13:18:26;4.83;;;4.33;;
5604;SDS011;9297;47.258;11.362;2023-12-04T13:20:54;3.77;;;3.47;;
5604;SDS011;9297;47.258;11.362;2023-12-04T13:23:23;4.67;;;4.03;;
5604;SDS011;9297;47.258;11.362;2023-12-04T13:25:50;4.73;;;3.70;;
5604;SDS011;9297;47.258;11.362;2023-12-04T13:28:17;4.33;;;3.50;;
5604;SDS011;9297;47.258;11.362;2023-12-04T13:30:57;4.13;;;3.80;;
5604;SDS011;9297;47.258;11.362;2023-12-04T13:33:26;5.37;;;4.03;;
5604;SDS011;9297;47.258;11.362;2023-12-04T13:35:54;5.30;;;3.80;;
5604;SDS011;9297;47.258;11.362;2023-12-04T13:38:21;4.63;;;4.20;;
5604;SDS011;9297;47.258;11.362;2023-12-04T13:40:58;4.37;;;3.83;;
5604;SDS011;9297;47.258;11.362;2023-12-04T13:43:26;4.33;;;3.93;;
5604;SDS011;9297;47.258;11.362;2023-12-04T13:45:53;3.47;;;3.17;;
5604;SDS011;9297;47.258;11.362;2023-12-04T13:48:20;4.37;;;3.97;;
5604;SDS011;9297;47.258;11.362;2023-12-04T13:50:48;6.30;;;4.00;;
5604;SDS011;9297;47.258;11.362;2023-12-04T13:53:15;4.07;;;3.67;;
5604;SDS011;9297;47.258;11.362;2023-12-04T13:55:42;5.13;;;3.77;;
5604;SDS011;9297;47.258;11.362;2023-12-04T13:58:11;5.27;;;3.73;;
5604;SDS011;9297;47.258;11.362;2023-12-04T14:00:39;4.27;;;3.87;;
5604;SDS011;9297;47.258;11.362;2023-12-04T14:03:07;5.23;;;3.93;;
5604;SDS011;9297;47.258;11.362;2023-12-04T14:05:35;3.93;;;3.57;;
5604;SDS011;9297;47.258;11.362;2023-12-04T14:08:02;3.97;;;3.57;;
5604;SDS011;9297;47.258;11.362;2023-12-04T14:10:30;4.53;;;3.90;;
5604;SDS011;9297;47.258;11.362;2023-12-04T14:12:58;3.47;;;3.27;;
5604;SDS011;9297;47.258;11.362;2023-12-04T14:15:28;4.43;;;3.50;;
5604;SDS011;9297;47.258;11.362;2023-12-04T14:17:55;5.07;;;4.07;;
5604;SDS011;9297;47.258;11.362;2023-12-04T14:20:22;4.80;;;4.40;;
5604;SDS011;9297;47.258;11.362;2023-12-04T14:22:49;8.20;;;4.73;;
5604;SDS011;9297;47.258;11.362;2023-12-04T14:25:17;4.50;;;4.10;;
5604;SDS011;9297;47.258;11.362;2023-12-04T14:27:44;4.37;;;3.97;;
5604;SDS011;9297;47.258;11.362;2023-12-04T14:30:11;5.50;;;4.60;;
5604;SDS011;9297;47.258;11.362;2023-12-04T14:32:40;3.93;;;3.53;;
5604;SDS011;9297;47.258;11.362;2023-12-04T14:35:13;3.83;;;3.43;;
5604;SDS011;9297;47.258;11.362;2023-12-04T14:37:42;5.50;;;4.23;;
5604;SDS011;9297;47.258;11.362;2023-12-04T14:40:13;6.93;;;5.17;;
5604;SDS011;9297;47.258;11.362;2023-12-04T14:42:40;5.97;;;5.13;;
5604;SDS011;9297;47.258;11.362;2023-12-04T14:45:09;6.03;;;4.97;;
5604;SDS011;9297;47.258;11.362;2023-12-04T14:47:37;6.70;;;5.10;;
5604;SDS011;9297;47.258;11.362;2023-12-04T14:50:06;5.50;;;4.83;;
5604;SDS011;9297;47.258;11.362;2023-12-04T14:52:34;5.47;;;4.30;;
5604;SDS011;9297;47.258;11.362;2023-12-04T14:55:01;6.87;;;5.50;;
5604;SDS011;9297;47.258;11.362;2023-12-04T14:57:28;5.83;;;4.80;;
5604;SDS011;9297;47.258;11.362;2023-12-04T14:59:58;6.30;;;4.73;;
5604;SDS011;9297;47.258;11.362;2023-12-04T15:02:28;8.93;;;5.40;;
5604;SDS011;9297;47.258;11.362;2023-12-04T15:04:56;6.20;;;4.83;;
5604;SDS011;9297;47.258;11.362;2023-12-04T15:07:27;8.67;;;5.10;;